sensor_id;sensor_type;location;lat;lon;timestamp;temperature;humidity
52899;DHT22;38763;53.096;6.062;2023-02-26T00:00:58;2.20;99.90
52899;DHT22;38763;53.096;6.062;2023-02-26T00:03:24;2.20;99.90
52899;DHT22;38763;53.096;6.062;2023-02-26T00:05:50;2.30;99.90
52899;DHT22;38763;53.096;6.062;2023-02-26T00:08:15;2.20;99.90
52899;DHT22;38763;53.096;6.062;2023-02-26T00:10:41;2.20;99.90
52899;DHT22;38763;53.096;6.062;2023-02-26T00:13:09;2.10;99.90
52899;DHT22;38763;53.096;6.062;2023-02-26T00:15:35;2.10;99.90
52899;DHT22;38763;53.096;6.062;2023-02-26T00:18:06;2.10;99.90
52899;DHT22;38763;53.096;6.062;2023-02-26T00:20:32;2.00;99.90
52899;DHT22;38763;53.096;6.062;2023-02-26T00:22:58;2.00;99.90
52899;DHT22;38763;53.096;6.062;2023-02-26T00:25:24;2.00;99.90
52899;DHT22;38763;53.096;6.062;2023-02-26T00:27:50;1.90;99.90
52899;DHT22;38763;53.096;6.062;2023-02-26T00:30:16;1.90;99.90
52899;DHT22;38763;53.096;6.062;2023-02-26T00:32:42;1.90;99.90
52899;DHT22;38763;53.096;6.062;2023-02-26T00:35:13;1.90;99.90
52899;DHT22;38763;53.096;6.062;2023-02-26T00:37:51;1.90;99.90
52899;DHT22;38763;53.096;6.062;2023-02-26T00:40:39;1.90;99.90
52899;DHT22;38763;53.096;6.062;2023-02-26T00:43:09;1.90;99.90
52899;DHT22;38763;53.096;6.062;2023-02-26T00:45:35;1.90;99.90
52899;DHT22;38763;53.096;6.062;2023-02-26T00:50:58;2.00;99.90
52899;DHT22;38763;53.096;6.062;2023-02-26T00:54:29;2.00;99.90
52899;DHT22;38763;53.096;6.062;2023-02-26T00:56:30;2.00;99.90
52899;DHT22;38763;53.096;6.062;2023-02-26T00:58:56;2.00;99.90
52899;DHT22;38763;53.096;6.062;2023-02-26T01:01:22;1.90;99.90
52899;DHT22;38763;53.096;6.062;2023-02-26T01:03:48;1.90;99.90
52899;DHT22;38763;53.096;6.062;2023-02-26T01:06:17;1.90;99.90
52899;DHT22;38763;53.096;6.062;2023-02-26T01:08:57;1.90;99.90
52899;DHT22;38763;53.096;6.062;2023-02-26T01:11:26;1.70;99.90
52899;DHT22;38763;53.096;6.062;2023-02-26T01:13:52;1.80;99.90
52899;DHT22;38763;53.096;6.062;2023-02-26T01:16:22;1.70;99.90
52899;DHT22;38763;53.096;6.062;2023-02-26T01:19:29;1.70;99.90
52899;DHT22;38763;53.096;6.062;2023-02-26T01:22:12;1.70;99.90
52899;DHT22;38763;53.096;6.062;2023-02-26T01:24:40;1.70;99.90
52899;DHT22;38763;53.096;6.062;2023-02-26T01:27:06;1.60;99.90
52899;DHT22;38763;53.096;6.062;2023-02-26T01:29:32;1.70;99.90
52899;DHT22;38763;53.096;6.062;2023-02-26T01:32:11;1.70;99.90
52899;DHT22;38763;53.096;6.062;2023-02-26T01:34:43;1.70;99.90
52899;DHT22;38763;53.096;6.062;2023-02-26T01:37:35;1.70;99.90
52899;DHT22;38763;53.096;6.062;2023-02-26T01:42:43;1.60;99.90
52899;DHT22;38763;53.096;6.062;2023-02-26T01:45:13;1.60;99.90
52899;DHT22;38763;53.096;6.062;2023-02-26T01:48:04;1.60;99.90
52899;DHT22;38763;53.096;6.062;2023-02-26T01:50:31;1.60;99.90
52899;DHT22;38763;53.096;6.062;2023-02-26T01:53:22;1.60;99.90
52899;DHT22;38763;53.096;6.062;2023-02-26T01:55:59;1.50;99.90
52899;DHT22;38763;53.096;6.062;2023-02-26T01:58:29;1.50;99.90
52899;DHT22;38763;53.096;6.062;2023-02-26T02:00:55;1.50;99.90
52899;DHT22;38763;53.096;6.062;2023-02-26T02:03:21;1.50;99.90
52899;DHT22;38763;53.096;6.062;2023-02-26T02:05:53;1.50;99.90
52899;DHT22;38763;53.096;6.062;2023-02-26T02:08:21;1.40;99.90
52899;DHT22;38763;53.096;6.062;2023-02-26T02:10:47;1.40;99.90
52899;DHT22;38763;53.096;6.062;2023-02-26T02:30:37;1.50;99.90
52899;DHT22;38763;53.096;6.062;2023-02-26T02:33:12;1.60;99.90
52899;DHT22;38763;53.096;6.062;2023-02-26T02:35:52;1.60;99.90
52899;DHT22;38763;53.096;6.062;2023-02-26T02:38:25;1.50;99.90
52899;DHT22;38763;53.096;6.062;2023-02-26T02:40:56;1.50;99.90
52899;DHT22;38763;53.096;6.062;2023-02-26T02:43:26;1.40;99.90
52899;DHT22;38763;53.096;6.062;2023-02-26T02:46:01;1.40;99.90
52899;DHT22;38763;53.096;6.062;2023-02-26T02:48:41;1.40;99.90
52899;DHT22;38763;53.096;6.062;2023-02-26T02:51:20;1.40;99.90
52899;DHT22;38763;53.096;6.062;2023-02-26T02:53:56;1.40;99.90
52899;DHT22;38763;53.096;6.062;2023-02-26T02:56:26;1.40;99.90
52899;DHT22;38763;53.096;6.062;2023-02-26T02:59:02;1.40;99.90
52899;DHT22;38763;53.096;6.062;2023-02-26T03:01:30;1.40;99.90
52899;DHT22;38763;53.096;6.062;2023-02-26T03:04:05;1.30;99.90
52899;DHT22;38763;53.096;6.062;2023-02-26T03:06:32;1.40;99.90
52899;DHT22;38763;53.096;6.062;2023-02-26T03:09:00;1.30;99.90
52899;DHT22;38763;53.096;6.062;2023-02-26T03:11:26;1.30;99.90
52899;DHT22;38763;53.096;6.062;2023-02-26T03:13:52;1.30;99.90
52899;DHT22;38763;53.096;6.062;2023-02-26T03:25:43;1.20;99.90
52899;DHT22;38763;53.096;6.062;2023-02-26T03:28:30;1.10;99.90
52899;DHT22;38763;53.096;6.062;2023-02-26T03:31:14;1.10;99.90
52899;DHT22;38763;53.096;6.062;2023-02-26T03:33:58;1.10;99.90
52899;DHT22;38763;53.096;6.062;2023-02-26T03:36:38;1.10;99.90
52899;DHT22;38763;53.096;6.062;2023-02-26T03:42:18;1.10;99.90
52899;DHT22;38763;53.096;6.062;2023-02-26T03:44:56;1.10;99.90
52899;DHT22;38763;53.096;6.062;2023-02-26T03:47:24;1.20;99.90
52899;DHT22;38763;53.096;6.062;2023-02-26T03:52:26;1.20;99.90
52899;DHT22;38763;53.096;6.062;2023-02-26T03:55:02;1.20;99.90
52899;DHT22;38763;53.096;6.062;2023-02-26T03:57:29;1.30;99.90
52899;DHT22;38763;53.096;6.062;2023-02-26T03:59:55;1.40;99.90
52899;DHT22;38763;53.096;6.062;2023-02-26T04:02:36;1.40;99.90
52899;DHT22;38763;53.096;6.062;2023-02-26T04:05:10;1.40;99.90
52899;DHT22;38763;53.096;6.062;2023-02-26T04:07:38;1.40;99.90
52899;DHT22;38763;53.096;6.062;2023-02-26T04:10:05;1.40;99.90
52899;DHT22;38763;53.096;6.062;2023-02-26T04:12:32;1.40;99.90
52899;DHT22;38763;53.096;6.062;2023-02-26T04:14:57;1.40;99.90
52899;DHT22;38763;53.096;6.062;2023-02-26T04:17:24;1.40;99.90
52899;DHT22;38763;53.096;6.062;2023-02-26T04:19:49;1.40;99.90
52899;DHT22;38763;53.096;6.062;2023-02-26T04:22:15;1.40;99.90
52899;DHT22;38763;53.096;6.062;2023-02-26T04:24:41;1.40;99.90
52899;DHT22;38763;53.096;6.062;2023-02-26T04:27:06;1.30;99.90
52899;DHT22;38763;53.096;6.062;2023-02-26T04:29:32;1.30;99.90
52899;DHT22;38763;53.096;6.062;2023-02-26T04:31:58;1.30;99.90
52899;DHT22;38763;53.096;6.062;2023-02-26T04:34:25;1.30;99.90
52899;DHT22;38763;53.096;6.062;2023-02-26T04:36:51;1.30;99.90
52899;DHT22;38763;53.096;6.062;2023-02-26T04:39:16;1.30;99.90
52899;DHT22;38763;53.096;6.062;2023-02-26T04:41:42;1.20;99.90
52899;DHT22;38763;53.096;6.062;2023-02-26T04:44:08;1.30;99.90
52899;DHT22;38763;53.096;6.062;2023-02-26T04:46:33;1.30;99.90
52899;DHT22;38763;53.096;6.062;2023-02-26T04:48:59;1.30;99.90
52899;DHT22;38763;53.096;6.062;2023-02-26T04:51:25;1.30;99.90
52899;DHT22;38763;53.096;6.062;2023-02-26T04:53:51;1.20;99.90
52899;DHT22;38763;53.096;6.062;2023-02-26T04:56:16;1.20;99.90
52899;DHT22;38763;53.096;6.062;2023-02-26T04:58:42;1.20;99.90
52899;DHT22;38763;53.096;6.062;2023-02-26T05:01:07;1.30;99.90
52899;DHT22;38763;53.096;6.062;2023-02-26T05:03:33;1.20;99.90
52899;DHT22;38763;53.096;6.062;2023-02-26T05:05:59;1.20;99.90
52899;DHT22;38763;53.096;6.062;2023-02-26T05:08:24;1.20;99.90
52899;DHT22;38763;53.096;6.062;2023-02-26T05:10:51;1.10;99.90
52899;DHT22;38763;53.096;6.062;2023-02-26T05:13:17;1.00;99.90
52899;DHT22;38763;53.096;6.062;2023-02-26T05:15:43;1.00;99.90
52899;DHT22;38763;53.096;6.062;2023-02-26T05:18:09;1.00;99.90
52899;DHT22;38763;53.096;6.062;2023-02-26T05:20:34;1.00;99.90
52899;DHT22;38763;53.096;6.062;2023-02-26T05:23:00;0.90;99.90
52899;DHT22;38763;53.096;6.062;2023-02-26T05:25:25;1.00;99.90
52899;DHT22;38763;53.096;6.062;2023-02-26T05:27:51;1.00;99.90
52899;DHT22;38763;53.096;6.062;2023-02-26T05:30:17;0.90;99.90
52899;DHT22;38763;53.096;6.062;2023-02-26T05:32:43;0.90;99.90
52899;DHT22;38763;53.096;6.062;2023-02-26T05:35:10;0.90;99.90
52899;DHT22;38763;53.096;6.062;2023-02-26T05:37:36;0.90;99.90
52899;DHT22;38763;53.096;6.062;2023-02-26T05:40:04;0.90;99.90
52899;DHT22;38763;53.096;6.062;2023-02-26T05:42:30;0.90;99.90
52899;DHT22;38763;53.096;6.062;2023-02-26T05:44:56;0.90;99.90
52899;DHT22;38763;53.096;6.062;2023-02-26T05:47:22;0.80;99.90
52899;DHT22;38763;53.096;6.062;2023-02-26T05:49:48;0.80;99.90
52899;DHT22;38763;53.096;6.062;2023-02-26T05:52:14;0.70;99.90
52899;DHT22;38763;53.096;6.062;2023-02-26T05:54:40;0.70;99.90
52899;DHT22;38763;53.096;6.062;2023-02-26T05:57:05;0.70;99.90
52899;DHT22;38763;53.096;6.062;2023-02-26T05:59:31;0.70;99.90
52899;DHT22;38763;53.096;6.062;2023-02-26T06:01:57;0.60;99.90
52899;DHT22;38763;53.096;6.062;2023-02-26T06:04:22;0.60;99.90
52899;DHT22;38763;53.096;6.062;2023-02-26T06:06:48;0.50;99.90
52899;DHT22;38763;53.096;6.062;2023-02-26T06:09:14;0.50;99.90
52899;DHT22;38763;53.096;6.062;2023-02-26T06:11:40;0.50;99.90
52899;DHT22;38763;53.096;6.062;2023-02-26T06:14:05;0.50;99.90
52899;DHT22;38763;53.096;6.062;2023-02-26T06:16:31;0.50;99.90
52899;DHT22;38763;53.096;6.062;2023-02-26T06:18:57;0.50;99.90
52899;DHT22;38763;53.096;6.062;2023-02-26T06:21:23;0.50;99.90
52899;DHT22;38763;53.096;6.062;2023-02-26T06:23:49;0.50;99.90
52899;DHT22;38763;53.096;6.062;2023-02-26T06:26:14;0.50;99.90
52899;DHT22;38763;53.096;6.062;2023-02-26T06:28:40;0.50;99.90
52899;DHT22;38763;53.096;6.062;2023-02-26T06:31:06;0.40;99.90
52899;DHT22;38763;53.096;6.062;2023-02-26T06:33:31;0.50;99.90
52899;DHT22;38763;53.096;6.062;2023-02-26T06:35:57;0.40;99.90
52899;DHT22;38763;53.096;6.062;2023-02-26T06:38:25;0.40;99.90
52899;DHT22;38763;53.096;6.062;2023-02-26T06:40:50;0.40;99.90
52899;DHT22;38763;53.096;6.062;2023-02-26T06:43:16;0.40;99.90
52899;DHT22;38763;53.096;6.062;2023-02-26T06:45:42;0.40;99.90
52899;DHT22;38763;53.096;6.062;2023-02-26T06:48:07;0.30;99.90
52899;DHT22;38763;53.096;6.062;2023-02-26T06:50:33;0.30;99.90
52899;DHT22;38763;53.096;6.062;2023-02-26T06:52:59;0.30;99.90
52899;DHT22;38763;53.096;6.062;2023-02-26T06:55:24;0.30;99.90
52899;DHT22;38763;53.096;6.062;2023-02-26T06:57:55;0.30;99.90
52899;DHT22;38763;53.096;6.062;2023-02-26T07:00:22;0.40;99.90
52899;DHT22;38763;53.096;6.062;2023-02-26T07:02:48;0.40;99.90
52899;DHT22;38763;53.096;6.062;2023-02-26T07:05:14;0.40;99.90
52899;DHT22;38763;53.096;6.062;2023-02-26T07:07:40;0.40;99.90
52899;DHT22;38763;53.096;6.062;2023-02-26T07:10:08;0.40;99.90
52899;DHT22;38763;53.096;6.062;2023-02-26T07:12:34;0.50;99.90
52899;DHT22;38763;53.096;6.062;2023-02-26T07:14:59;0.50;99.90
52899;DHT22;38763;53.096;6.062;2023-02-26T07:17:25;0.50;99.90
52899;DHT22;38763;53.096;6.062;2023-02-26T07:19:51;0.50;99.90
52899;DHT22;38763;53.096;6.062;2023-02-26T07:22:18;0.60;99.90
52899;DHT22;38763;53.096;6.062;2023-02-26T07:24:44;0.60;99.90
52899;DHT22;38763;53.096;6.062;2023-02-26T07:27:10;0.60;99.90
52899;DHT22;38763;53.096;6.062;2023-02-26T07:29:36;0.60;99.90
52899;DHT22;38763;53.096;6.062;2023-02-26T07:32:03;0.60;99.90
52899;DHT22;38763;53.096;6.062;2023-02-26T07:34:29;0.60;99.90
52899;DHT22;38763;53.096;6.062;2023-02-26T07:36:55;0.70;99.90
52899;DHT22;38763;53.096;6.062;2023-02-26T07:39:21;0.70;99.90
52899;DHT22;38763;53.096;6.062;2023-02-26T07:41:47;0.80;99.90
52899;DHT22;38763;53.096;6.062;2023-02-26T07:44:12;0.80;99.90
52899;DHT22;38763;53.096;6.062;2023-02-26T07:46:38;0.80;99.90
52899;DHT22;38763;53.096;6.062;2023-02-26T07:49:04;0.90;99.90
52899;DHT22;38763;53.096;6.062;2023-02-26T07:51:29;0.90;99.90
52899;DHT22;38763;53.096;6.062;2023-02-26T07:53:55;1.00;99.90
52899;DHT22;38763;53.096;6.062;2023-02-26T07:56:20;1.00;99.90
52899;DHT22;38763;53.096;6.062;2023-02-26T07:58:46;1.10;99.90
52899;DHT22;38763;53.096;6.062;2023-02-26T08:01:12;1.10;99.90
52899;DHT22;38763;53.096;6.062;2023-02-26T08:03:37;1.20;99.90
52899;DHT22;38763;53.096;6.062;2023-02-26T08:06:03;1.20;99.90
52899;DHT22;38763;53.096;6.062;2023-02-26T08:08:29;1.30;99.90
52899;DHT22;38763;53.096;6.062;2023-02-26T08:10:58;1.30;99.90
52899;DHT22;38763;53.096;6.062;2023-02-26T08:13:24;1.30;99.90
52899;DHT22;38763;53.096;6.062;2023-02-26T08:15:50;1.50;99.90
52899;DHT22;38763;53.096;6.062;2023-02-26T08:18:15;1.40;99.90
52899;DHT22;38763;53.096;6.062;2023-02-26T08:20:41;1.50;99.90
52899;DHT22;38763;53.096;6.062;2023-02-26T08:23:07;1.60;99.90
52899;DHT22;38763;53.096;6.062;2023-02-26T08:25:32;1.70;99.90
52899;DHT22;38763;53.096;6.062;2023-02-26T08:27:58;1.80;99.90
52899;DHT22;38763;53.096;6.062;2023-02-26T08:30:26;1.80;99.90
52899;DHT22;38763;53.096;6.062;2023-02-26T08:32:51;1.90;99.90
52899;DHT22;38763;53.096;6.062;2023-02-26T08:35:17;2.10;99.90
52899;DHT22;38763;53.096;6.062;2023-02-26T08:37:43;2.10;99.90
52899;DHT22;38763;53.096;6.062;2023-02-26T08:40:09;2.10;99.90
52899;DHT22;38763;53.096;6.062;2023-02-26T08:42:35;2.20;99.90
52899;DHT22;38763;53.096;6.062;2023-02-26T08:45:01;2.30;99.90
52899;DHT22;38763;53.096;6.062;2023-02-26T08:47:27;2.30;99.90
52899;DHT22;38763;53.096;6.062;2023-02-26T08:49:52;2.40;99.90
52899;DHT22;38763;53.096;6.062;2023-02-26T08:52:19;2.50;99.90
52899;DHT22;38763;53.096;6.062;2023-02-26T08:54:45;2.60;99.90
52899;DHT22;38763;53.096;6.062;2023-02-26T08:57:11;2.70;99.90
52899;DHT22;38763;53.096;6.062;2023-02-26T08:59:36;2.80;99.90
52899;DHT22;38763;53.096;6.062;2023-02-26T09:02:02;2.90;99.90
52899;DHT22;38763;53.096;6.062;2023-02-26T09:04:28;2.90;99.90
52899;DHT22;38763;53.096;6.062;2023-02-26T09:06:53;3.00;99.90
52899;DHT22;38763;53.096;6.062;2023-02-26T09:09:19;3.10;99.90
52899;DHT22;38763;53.096;6.062;2023-02-26T09:11:45;3.20;99.90
52899;DHT22;38763;53.096;6.062;2023-02-26T09:14:11;3.30;99.90
52899;DHT22;38763;53.096;6.062;2023-02-26T09:16:36;3.30;99.90
52899;DHT22;38763;53.096;6.062;2023-02-26T09:19:05;3.40;99.90
52899;DHT22;38763;53.096;6.062;2023-02-26T09:21:31;3.50;99.90
52899;DHT22;38763;53.096;6.062;2023-02-26T09:23:57;3.60;99.90
52899;DHT22;38763;53.096;6.062;2023-02-26T09:26:23;3.60;99.90
52899;DHT22;38763;53.096;6.062;2023-02-26T09:28:49;3.70;99.90
52899;DHT22;38763;53.096;6.062;2023-02-26T09:31:15;3.70;99.90
52899;DHT22;38763;53.096;6.062;2023-02-26T09:33:40;3.70;99.90
52899;DHT22;38763;53.096;6.062;2023-02-26T09:36:06;3.80;99.90
52899;DHT22;38763;53.096;6.062;2023-02-26T09:38:33;3.80;99.90
52899;DHT22;38763;53.096;6.062;2023-02-26T09:41:15;3.90;99.90
52899;DHT22;38763;53.096;6.062;2023-02-26T09:55:29;4.20;99.90
52899;DHT22;38763;53.096;6.062;2023-02-26T09:58:01;4.20;99.90
52899;DHT22;38763;53.096;6.062;2023-02-26T10:00:40;4.20;99.90
52899;DHT22;38763;53.096;6.062;2023-02-26T10:09:02;4.40;99.90
52899;DHT22;38763;53.096;6.062;2023-02-26T10:14:07;4.60;99.90
52899;DHT22;38763;53.096;6.062;2023-02-26T10:16:40;4.70;99.90
52899;DHT22;38763;53.096;6.062;2023-02-26T10:19:10;4.80;99.90
52899;DHT22;38763;53.096;6.062;2023-02-26T10:21:45;5.00;99.90
52899;DHT22;38763;53.096;6.062;2023-02-26T10:24:17;5.10;99.90
52899;DHT22;38763;53.096;6.062;2023-02-26T10:26:49;5.10;99.90
52899;DHT22;38763;53.096;6.062;2023-02-26T10:29:24;5.30;99.90
52899;DHT22;38763;53.096;6.062;2023-02-26T10:32:03;5.30;99.90
52899;DHT22;38763;53.096;6.062;2023-02-26T10:34:39;5.30;99.90
52899;DHT22;38763;53.096;6.062;2023-02-26T10:42:27;5.10;99.90
52899;DHT22;38763;53.096;6.062;2023-02-26T10:45:15;5.10;99.90
52899;DHT22;38763;53.096;6.062;2023-02-26T10:50:47;4.70;99.90
52899;DHT22;38763;53.096;6.062;2023-02-26T10:53:13;4.60;99.90
52899;DHT22;38763;53.096;6.062;2023-02-26T10:56:42;4.50;99.90
52899;DHT22;38763;53.096;6.062;2023-02-26T10:58:37;4.50;99.90
52899;DHT22;38763;53.096;6.062;2023-02-26T11:01:09;4.50;99.90
52899;DHT22;38763;53.096;6.062;2023-02-26T11:03:41;4.50;99.90
52899;DHT22;38763;53.096;6.062;2023-02-26T11:06:07;4.60;99.90
52899;DHT22;38763;53.096;6.062;2023-02-26T11:08:39;4.70;99.90
52899;DHT22;38763;53.096;6.062;2023-02-26T11:11:06;4.70;99.90
52899;DHT22;38763;53.096;6.062;2023-02-26T11:13:34;4.80;99.90
52899;DHT22;38763;53.096;6.062;2023-02-26T11:16:10;5.00;99.90
52899;DHT22;38763;53.096;6.062;2023-02-26T11:18:45;5.20;99.90
52899;DHT22;38763;53.096;6.062;2023-02-26T11:21:38;5.20;99.90
52899;DHT22;38763;53.096;6.062;2023-02-26T11:24:08;5.20;99.90
52899;DHT22;38763;53.096;6.062;2023-02-26T11:26:36;5.20;99.90
52899;DHT22;38763;53.096;6.062;2023-02-26T11:29:03;5.10;99.90
52899;DHT22;38763;53.096;6.062;2023-02-26T11:31:31;5.00;99.90
52899;DHT22;38763;53.096;6.062;2023-02-26T11:34:07;5.00;99.90
52899;DHT22;38763;53.096;6.062;2023-02-26T11:36:33;5.00;99.90
52899;DHT22;38763;53.096;6.062;2023-02-26T11:39:23;5.00;99.90
52899;DHT22;38763;53.096;6.062;2023-02-26T11:41:52;4.90;99.90
52899;DHT22;38763;53.096;6.062;2023-02-26T11:44:26;4.80;99.90
52899;DHT22;38763;53.096;6.062;2023-02-26T11:46:57;4.70;99.90
52899;DHT22;38763;53.096;6.062;2023-02-26T11:49:26;4.70;99.90
52899;DHT22;38763;53.096;6.062;2023-02-26T11:52:20;4.60;99.90
52899;DHT22;38763;53.096;6.062;2023-02-26T11:54:49;4.70;99.90
52899;DHT22;38763;53.096;6.062;2023-02-26T11:57:18;4.60;99.90
52899;DHT22;38763;53.096;6.062;2023-02-26T11:59:52;4.60;99.90
52899;DHT22;38763;53.096;6.062;2023-02-26T12:02:21;4.70;99.90
52899;DHT22;38763;53.096;6.062;2023-02-26T12:04:51;4.70;99.90
52899;DHT22;38763;53.096;6.062;2023-02-26T12:07:18;4.80;99.90
52899;DHT22;38763;53.096;6.062;2023-02-26T12:09:44;4.90;99.90
52899;DHT22;38763;53.096;6.062;2023-02-26T12:22:59;5.60;99.90
52899;DHT22;38763;53.096;6.062;2023-02-26T12:28:30;5.70;99.90
52899;DHT22;38763;53.096;6.062;2023-02-26T12:38:58;5.60;99.90
52899;DHT22;38763;53.096;6.062;2023-02-26T12:41:39;5.50;99.90
52899;DHT22;38763;53.096;6.062;2023-02-26T12:47:46;5.40;99.90
52899;DHT22;38763;53.096;6.062;2023-02-26T13:08:38;5.60;99.90
52899;DHT22;38763;53.096;6.062;2023-02-26T13:11:08;5.60;99.90
52899;DHT22;38763;53.096;6.062;2023-02-26T13:14:03;5.60;99.90
52899;DHT22;38763;53.096;6.062;2023-02-26T13:16:52;5.60;99.90
52899;DHT22;38763;53.096;6.062;2023-02-26T13:19:31;5.70;99.90
52899;DHT22;38763;53.096;6.062;2023-02-26T13:22:16;5.80;99.90
52899;DHT22;38763;53.096;6.062;2023-02-26T13:25:05;5.80;99.90
52899;DHT22;38763;53.096;6.062;2023-02-26T13:27:36;5.70;99.90
52899;DHT22;38763;53.096;6.062;2023-02-26T13:30:24;5.70;99.90
52899;DHT22;38763;53.096;6.062;2023-02-26T13:32:55;5.70;99.90
52899;DHT22;38763;53.096;6.062;2023-02-26T13:35:27;5.70;99.90
52899;DHT22;38763;53.096;6.062;2023-02-26T13:37:56;5.70;99.90
52899;DHT22;38763;53.096;6.062;2023-02-26T13:48:40;5.80;99.90
52899;DHT22;38763;53.096;6.062;2023-02-26T13:51:23;5.90;99.90
52899;DHT22;38763;53.096;6.062;2023-02-26T13:53:57;5.70;99.90
52899;DHT22;38763;53.096;6.062;2023-02-26T14:01:33;5.80;99.90
52899;DHT22;38763;53.096;6.062;2023-02-26T14:04:21;5.70;99.90
52899;DHT22;38763;53.096;6.062;2023-02-26T14:12:03;5.60;99.90
52899;DHT22;38763;53.096;6.062;2023-02-26T14:17:49;5.40;99.90
52899;DHT22;38763;53.096;6.062;2023-02-26T14:22:44;5.50;99.90
52899;DHT22;38763;53.096;6.062;2023-02-26T14:27:39;5.60;99.90
52899;DHT22;38763;53.096;6.062;2023-02-26T14:32:45;5.30;99.90
52899;DHT22;38763;53.096;6.062;2023-02-26T14:37:47;5.30;99.90
52899;DHT22;38763;53.096;6.062;2023-02-26T14:40:19;5.40;99.90
52899;DHT22;38763;53.096;6.062;2023-02-26T14:42:52;5.40;99.90
52899;DHT22;38763;53.096;6.062;2023-02-26T14:45:37;5.40;99.90
52899;DHT22;38763;53.096;6.062;2023-02-26T14:48:15;5.30;99.90
52899;DHT22;38763;53.096;6.062;2023-02-26T14:50:55;5.20;99.90
52899;DHT22;38763;53.096;6.062;2023-02-26T14:56:43;5.10;99.90
52899;DHT22;38763;53.096;6.062;2023-02-26T14:59:45;5.20;99.90
52899;DHT22;38763;53.096;6.062;2023-02-26T15:13:51;5.20;99.90
52899;DHT22;38763;53.096;6.062;2023-02-26T15:16:36;5.20;99.90
52899;DHT22;38763;53.096;6.062;2023-02-26T15:24:40;5.20;99.90
52899;DHT22;38763;53.096;6.062;2023-02-26T15:27:09;5.20;99.90
52899;DHT22;38763;53.096;6.062;2023-02-26T15:29:37;5.10;99.90
52899;DHT22;38763;53.096;6.062;2023-02-26T15:34:48;5.10;99.90
52899;DHT22;38763;53.096;6.062;2023-02-26T15:37:21;5.10;99.90
52899;DHT22;38763;53.096;6.062;2023-02-26T15:39:49;5.10;99.90
52899;DHT22;38763;53.096;6.062;2023-02-26T15:42:15;5.10;99.90
52899;DHT22;38763;53.096;6.062;2023-02-26T15:44:43;5.10;99.90
52899;DHT22;38763;53.096;6.062;2023-02-26T15:47:10;5.00;99.90
52899;DHT22;38763;53.096;6.062;2023-02-26T15:49:42;5.00;99.90
52899;DHT22;38763;53.096;6.062;2023-02-26T15:52:24;5.00;99.90
52899;DHT22;38763;53.096;6.062;2023-02-26T15:55:02;5.00;99.90
52899;DHT22;38763;53.096;6.062;2023-02-26T15:57:29;4.90;99.90
52899;DHT22;38763;53.096;6.062;2023-02-26T16:00:12;4.90;99.90
52899;DHT22;38763;53.096;6.062;2023-02-26T16:02:41;4.90;99.90
52899;DHT22;38763;53.096;6.062;2023-02-26T16:05:07;4.80;99.90
52899;DHT22;38763;53.096;6.062;2023-02-26T16:07:35;4.80;99.90
52899;DHT22;38763;53.096;6.062;2023-02-26T16:10:17;4.80;99.90
52899;DHT22;38763;53.096;6.062;2023-02-26T16:12:44;4.70;99.90
52899;DHT22;38763;53.096;6.062;2023-02-26T16:15:17;4.70;99.90
52899;DHT22;38763;53.096;6.062;2023-02-26T16:17:48;4.60;99.90
52899;DHT22;38763;53.096;6.062;2023-02-26T16:20:17;4.60;99.90
52899;DHT22;38763;53.096;6.062;2023-02-26T16:22:54;4.60;99.90
52899;DHT22;38763;53.096;6.062;2023-02-26T16:26:08;4.60;99.90
52899;DHT22;38763;53.096;6.062;2023-02-26T16:28:37;4.60;99.90
52899;DHT22;38763;53.096;6.062;2023-02-26T16:31:18;4.50;99.90
52899;DHT22;38763;53.096;6.062;2023-02-26T16:33:58;4.50;99.90
52899;DHT22;38763;53.096;6.062;2023-02-26T16:36:28;4.50;99.90
52899;DHT22;38763;53.096;6.062;2023-02-26T16:41:38;4.40;99.90
52899;DHT22;38763;53.096;6.062;2023-02-26T16:46:57;4.40;99.90
52899;DHT22;38763;53.096;6.062;2023-02-26T16:49:32;4.30;99.90
52899;DHT22;38763;53.096;6.062;2023-02-26T16:51:59;4.30;99.90
52899;DHT22;38763;53.096;6.062;2023-02-26T16:54:29;4.30;99.90
52899;DHT22;38763;53.096;6.062;2023-02-26T16:56:58;4.20;99.90
52899;DHT22;38763;53.096;6.062;2023-02-26T16:59:31;4.10;99.90
52899;DHT22;38763;53.096;6.062;2023-02-26T17:02:19;4.10;99.90
52899;DHT22;38763;53.096;6.062;2023-02-26T17:04:53;4.00;99.90
52899;DHT22;38763;53.096;6.062;2023-02-26T17:07:34;4.00;99.90
52899;DHT22;38763;53.096;6.062;2023-02-26T17:10:28;3.90;99.90
52899;DHT22;38763;53.096;6.062;2023-02-26T17:13:02;3.90;99.90
52899;DHT22;38763;53.096;6.062;2023-02-26T17:15:32;3.90;99.90
52899;DHT22;38763;53.096;6.062;2023-02-26T17:17:59;3.80;99.90
52899;DHT22;38763;53.096;6.062;2023-02-26T17:20:25;3.80;99.90
52899;DHT22;38763;53.096;6.062;2023-02-26T17:22:52;3.70;99.90
52899;DHT22;38763;53.096;6.062;2023-02-26T17:25:19;3.70;99.90
52899;DHT22;38763;53.096;6.062;2023-02-26T17:27:45;3.60;99.90
52899;DHT22;38763;53.096;6.062;2023-02-26T17:30:15;3.60;99.90
52899;DHT22;38763;53.096;6.062;2023-02-26T17:32:42;3.60;99.90
52899;DHT22;38763;53.096;6.062;2023-02-26T17:35:10;3.60;99.90
52899;DHT22;38763;53.096;6.062;2023-02-26T17:37:36;3.50;99.90
52899;DHT22;38763;53.096;6.062;2023-02-26T17:40:03;3.40;99.90
52899;DHT22;38763;53.096;6.062;2023-02-26T17:42:29;3.40;99.90
52899;DHT22;38763;53.096;6.062;2023-02-26T17:44:55;3.40;99.90
52899;DHT22;38763;53.096;6.062;2023-02-26T17:47:23;3.40;99.90
52899;DHT22;38763;53.096;6.062;2023-02-26T17:49:50;3.40;99.90
52899;DHT22;38763;53.096;6.062;2023-02-26T17:52:16;3.30;99.90
52899;DHT22;38763;53.096;6.062;2023-02-26T17:54:42;3.20;99.90
52899;DHT22;38763;53.096;6.062;2023-02-26T17:57:16;3.20;99.90
52899;DHT22;38763;53.096;6.062;2023-02-26T17:59:43;3.10;99.90
52899;DHT22;38763;53.096;6.062;2023-02-26T18:02:22;3.10;99.90
52899;DHT22;38763;53.096;6.062;2023-02-26T18:04:49;3.00;99.90
52899;DHT22;38763;53.096;6.062;2023-02-26T18:07:16;2.90;99.90
52899;DHT22;38763;53.096;6.062;2023-02-26T18:09:43;2.90;99.90
52899;DHT22;38763;53.096;6.062;2023-02-26T18:12:15;2.80;99.90
52899;DHT22;38763;53.096;6.062;2023-02-26T18:14:41;2.80;99.90
52899;DHT22;38763;53.096;6.062;2023-02-26T18:17:12;2.80;99.90
52899;DHT22;38763;53.096;6.062;2023-02-26T18:19:40;2.80;99.90
52899;DHT22;38763;53.096;6.062;2023-02-26T18:22:13;2.80;99.90
52899;DHT22;38763;53.096;6.062;2023-02-26T18:24:40;2.80;99.90
52899;DHT22;38763;53.096;6.062;2023-02-26T18:27:10;2.80;99.90
52899;DHT22;38763;53.096;6.062;2023-02-26T18:29:37;2.70;99.90
52899;DHT22;38763;53.096;6.062;2023-02-26T18:32:03;2.80;99.90
52899;DHT22;38763;53.096;6.062;2023-02-26T18:34:28;2.70;99.90
52899;DHT22;38763;53.096;6.062;2023-02-26T18:36:54;2.70;99.90
52899;DHT22;38763;53.096;6.062;2023-02-26T18:39:20;2.70;99.90
52899;DHT22;38763;53.096;6.062;2023-02-26T18:41:46;2.70;99.90
52899;DHT22;38763;53.096;6.062;2023-02-26T18:44:11;2.60;99.90
52899;DHT22;38763;53.096;6.062;2023-02-26T18:46:37;2.60;99.90
52899;DHT22;38763;53.096;6.062;2023-02-26T18:49:05;2.60;99.90
52899;DHT22;38763;53.096;6.062;2023-02-26T18:51:31;2.50;99.90
52899;DHT22;38763;53.096;6.062;2023-02-26T18:53:57;2.50;99.90